sensor_id;sensor_type;location;lat;lon;timestamp;pressure;altitude;pressure_sealevel;temperature
68939;BMP180;59064;45.294;11.816;2022-08-11T00:00:43;101736.60;;;23.40
68939;BMP180;59064;45.294;11.816;2022-08-11T00:03:12;101735.00;;;23.40
68939;BMP180;59064;45.294;11.816;2022-08-11T00:05:52;101735.80;;;23.40
68939;BMP180;59064;45.294;11.816;2022-08-11T00:08:27;101734.60;;;23.40
68939;BMP180;59064;45.294;11.816;2022-08-11T00:11:03;101736.40;;;23.30
68939;BMP180;59064;45.294;11.816;2022-08-11T00:13:34;101739.40;;;23.30
68939;BMP180;59064;45.294;11.816;2022-08-11T00:16:01;101730.40;;;23.30
68939;BMP180;59064;45.294;11.816;2022-08-11T00:18:28;101725.80;;;23.20
68939;BMP180;59064;45.294;11.816;2022-08-11T00:20:58;101728.40;;;23.20
68939;BMP180;59064;45.294;11.816;2022-08-11T00:23:25;101726.40;;;23.10
68939;BMP180;59064;45.294;11.816;2022-08-11T00:25:51;101728.00;;;23.10
68939;BMP180;59064;45.294;11.816;2022-08-11T00:28:32;101730.20;;;23.10
68939;BMP180;59064;45.294;11.816;2022-08-11T00:31:03;101725.00;;;23.00
68939;BMP180;59064;45.294;11.816;2022-08-11T00:33:40;101724.80;;;23.00
68939;BMP180;59064;45.294;11.816;2022-08-11T00:36:10;101717.60;;;23.00
68939;BMP180;59064;45.294;11.816;2022-08-11T00:38:41;101715.20;;;23.00
68939;BMP180;59064;45.294;11.816;2022-08-11T00:41:33;101715.40;;;22.90
68939;BMP180;59064;45.294;11.816;2022-08-11T00:50:23;101720.80;;;22.84
68939;BMP180;59064;45.294;11.816;2022-08-11T01:02:08;101719.00;;;22.70
68939;BMP180;59064;45.294;11.816;2022-08-11T01:12:39;101708.00;;;22.60
68939;BMP180;59064;45.294;11.816;2022-08-11T01:45:49;101701.60;;;22.06
68939;BMP180;59064;45.294;11.816;2022-08-11T01:48:43;101701.60;;;22.00
68939;BMP180;59064;45.294;11.816;2022-08-11T01:57:35;101693.20;;;21.90
68939;BMP180;59064;45.294;11.816;2022-08-11T02:00:15;101692.20;;;21.90
68939;BMP180;59064;45.294;11.816;2022-08-11T02:08:46;101686.60;;;22.00
68939;BMP180;59064;45.294;11.816;2022-08-11T02:11:35;101678.80;;;22.00
68939;BMP180;59064;45.294;11.816;2022-08-11T02:17:16;101680.20;;;22.00
68939;BMP180;59064;45.294;11.816;2022-08-11T02:20:13;101672.60;;;22.10
68939;BMP180;59064;45.294;11.816;2022-08-11T02:52:18;101645.40;;;22.10
68939;BMP180;59064;45.294;11.816;2022-08-11T02:55:37;101644.40;;;22.00
68939;BMP180;59064;45.294;11.816;2022-08-11T02:58:16;101640.20;;;22.00
68939;BMP180;59064;45.294;11.816;2022-08-11T03:01:07;101635.20;;;21.90
68939;BMP180;59064;45.294;11.816;2022-08-11T03:04:07;101633.40;;;21.90
68939;BMP180;59064;45.294;11.816;2022-08-11T03:07:04;101630.00;;;21.82
68939;BMP180;59064;45.294;11.816;2022-08-11T03:12:17;101627.60;;;21.80
68939;BMP180;59064;45.294;11.816;2022-08-11T03:18:15;101624.60;;;21.70
68939;BMP180;59064;45.294;11.816;2022-08-11T03:21:22;101616.00;;;21.60
68939;BMP180;59064;45.294;11.816;2022-08-11T03:24:04;101616.40;;;21.60
68939;BMP180;59064;45.294;11.816;2022-08-11T03:27:07;101619.00;;;21.52
68939;BMP180;59064;45.294;11.816;2022-08-11T03:30:15;101618.80;;;21.50
68939;BMP180;59064;45.294;11.816;2022-08-11T03:33:14;101618.40;;;21.50
68939;BMP180;59064;45.294;11.816;2022-08-11T03:39:59;101611.40;;;21.50
68939;BMP180;59064;45.294;11.816;2022-08-11T03:43:05;101609.40;;;21.40
68939;BMP180;59064;45.294;11.816;2022-08-11T03:46:19;101606.20;;;21.32
68939;BMP180;59064;45.294;11.816;2022-08-11T03:53:08;101601.00;;;21.30
68939;BMP180;59064;45.294;11.816;2022-08-11T04:56:07;101618.40;;;22.00
68939;BMP180;59064;45.294;11.816;2022-08-11T05:09:15;101630.00;;;22.50
68939;BMP180;59064;45.294;11.816;2022-08-11T05:14:40;101630.40;;;22.70
68939;BMP180;59064;45.294;11.816;2022-08-11T05:17:50;101639.00;;;22.80
68939;BMP180;59064;45.294;11.816;2022-08-11T05:20:55;101644.60;;;22.90
68939;BMP180;59064;45.294;11.816;2022-08-11T05:24:01;101645.80;;;23.10
68939;BMP180;59064;45.294;11.816;2022-08-11T05:26:49;101640.00;;;23.30
68939;BMP180;59064;45.294;11.816;2022-08-11T05:29:42;101646.40;;;23.40
68939;BMP180;59064;45.294;11.816;2022-08-11T05:32:36;101642.80;;;23.56
68939;BMP180;59064;45.294;11.816;2022-08-11T05:35:43;101641.40;;;23.70
68939;BMP180;59064;45.294;11.816;2022-08-11T05:38:21;101643.80;;;23.80
68939;BMP180;59064;45.294;11.816;2022-08-11T05:41:10;101645.40;;;23.98
68939;BMP180;59064;45.294;11.816;2022-08-11T05:43:57;101649.00;;;24.10
68939;BMP180;59064;45.294;11.816;2022-08-11T05:46:43;101652.20;;;24.20
68939;BMP180;59064;45.294;11.816;2022-08-11T05:49:31;101654.40;;;24.30
68939;BMP180;59064;45.294;11.816;2022-08-11T05:52:20;101656.40;;;24.36
68939;BMP180;59064;45.294;11.816;2022-08-11T05:55:06;101653.00;;;24.50
68939;BMP180;59064;45.294;11.816;2022-08-11T05:57:56;101651.80;;;24.60
68939;BMP180;59064;45.294;11.816;2022-08-11T06:00:23;101651.20;;;24.70
68939;BMP180;59064;45.294;11.816;2022-08-11T06:02:57;101650.40;;;24.76
68939;BMP180;59064;45.294;11.816;2022-08-11T06:05:39;101650.60;;;24.88
68939;BMP180;59064;45.294;11.816;2022-08-11T06:08:08;101651.80;;;24.92
68939;BMP180;59064;45.294;11.816;2022-08-11T06:10:38;101653.80;;;24.90
68939;BMP180;59064;45.294;11.816;2022-08-11T06:13:06;101656.40;;;24.90
68939;BMP180;59064;45.294;11.816;2022-08-11T06:15:43;101655.80;;;24.80
68939;BMP180;59064;45.294;11.816;2022-08-11T06:18:11;101653.20;;;24.70
68939;BMP180;59064;45.294;11.816;2022-08-11T06:20:55;101651.40;;;24.70
68939;BMP180;59064;45.294;11.816;2022-08-11T06:23:24;101655.80;;;24.80
68939;BMP180;59064;45.294;11.816;2022-08-11T06:25:57;101657.00;;;24.88
68939;BMP180;59064;45.294;11.816;2022-08-11T06:28:36;101647.60;;;25.00
68939;BMP180;59064;45.294;11.816;2022-08-11T06:31:21;101650.80;;;25.28
68939;BMP180;59064;45.294;11.816;2022-08-11T06:37:08;101654.80;;;25.80
68939;BMP180;59064;45.294;11.816;2022-08-11T06:43:20;101648.00;;;26.20
68939;BMP180;59064;45.294;11.816;2022-08-11T06:46:25;101652.00;;;26.40
68939;BMP180;59064;45.294;11.816;2022-08-11T06:48:54;101651.60;;;26.60
68939;BMP180;59064;45.294;11.816;2022-08-11T06:51:20;101645.20;;;26.80
68939;BMP180;59064;45.294;11.816;2022-08-11T06:53:54;101648.80;;;27.00
68939;BMP180;59064;45.294;11.816;2022-08-11T06:56:25;101649.60;;;27.12
68939;BMP180;59064;45.294;11.816;2022-08-11T06:59:11;101650.80;;;27.36
68939;BMP180;59064;45.294;11.816;2022-08-11T07:02:23;101649.40;;;27.52
68939;BMP180;59064;45.294;11.816;2022-08-11T07:05:07;101648.00;;;27.60
68939;BMP180;59064;45.294;11.816;2022-08-11T07:14:26;101650.00;;;27.62
68939;BMP180;59064;45.294;11.816;2022-08-11T07:17:24;101648.60;;;27.60
68939;BMP180;59064;45.294;11.816;2022-08-11T07:20:02;101644.60;;;27.50
68939;BMP180;59064;45.294;11.816;2022-08-11T07:22:58;101642.40;;;27.50
68939;BMP180;59064;45.294;11.816;2022-08-11T07:25:50;101642.60;;;27.70
68939;BMP180;59064;45.294;11.816;2022-08-11T07:28:41;101635.00;;;27.70
68939;BMP180;59064;45.294;11.816;2022-08-11T07:31:50;101639.40;;;27.90
68939;BMP180;59064;45.294;11.816;2022-08-11T07:34:27;101639.00;;;28.00
68939;BMP180;59064;45.294;11.816;2022-08-11T07:36:57;101638.80;;;28.18
68939;BMP180;59064;45.294;11.816;2022-08-11T07:39:32;101629.40;;;28.28
68939;BMP180;59064;45.294;11.816;2022-08-11T07:41:59;101635.00;;;28.40
68939;BMP180;59064;45.294;11.816;2022-08-11T07:44:29;101635.40;;;28.40
68939;BMP180;59064;45.294;11.816;2022-08-11T07:46:56;101630.40;;;28.50
68939;BMP180;59064;45.294;11.816;2022-08-11T07:49:45;101625.40;;;28.60
68939;BMP180;59064;45.294;11.816;2022-08-11T07:52:33;101629.60;;;28.66
68939;BMP180;59064;45.294;11.816;2022-08-11T07:55:14;101633.20;;;28.70
68939;BMP180;59064;45.294;11.816;2022-08-11T07:57:44;101638.20;;;28.72
68939;BMP180;59064;45.294;11.816;2022-08-11T08:00:44;101639.80;;;28.90
68939;BMP180;59064;45.294;11.816;2022-08-11T08:03:29;101634.20;;;28.90
68939;BMP180;59064;45.294;11.816;2022-08-11T08:06:15;101638.80;;;29.04
68939;BMP180;59064;45.294;11.816;2022-08-11T08:09:00;101635.40;;;29.20
68939;BMP180;59064;45.294;11.816;2022-08-11T08:11:46;101635.80;;;29.20
68939;BMP180;59064;45.294;11.816;2022-08-11T08:14:31;101633.60;;;29.30
68939;BMP180;59064;45.294;11.816;2022-08-11T08:17:18;101619.40;;;29.40
68939;BMP180;59064;45.294;11.816;2022-08-11T08:20:04;101625.80;;;29.30
68939;BMP180;59064;45.294;11.816;2022-08-11T08:22:33;101626.20;;;29.34
68939;BMP180;59064;45.294;11.816;2022-08-11T08:24:59;101615.80;;;29.30
68939;BMP180;59064;45.294;11.816;2022-08-11T08:27:25;101613.40;;;29.20
68939;BMP180;59064;45.294;11.816;2022-08-11T08:29:52;101612.80;;;29.20
68939;BMP180;59064;45.294;11.816;2022-08-11T08:32:39;101624.20;;;29.20
68939;BMP180;59064;45.294;11.816;2022-08-11T08:35:09;101625.80;;;29.34
68939;BMP180;59064;45.294;11.816;2022-08-11T08:37:36;101620.00;;;29.74
68939;BMP180;59064;45.294;11.816;2022-08-11T08:40:05;101621.80;;;29.90
68939;BMP180;59064;45.294;11.816;2022-08-11T08:42:36;101615.40;;;29.84
68939;BMP180;59064;45.294;11.816;2022-08-11T08:45:07;101617.00;;;29.90
68939;BMP180;59064;45.294;11.816;2022-08-11T08:47:37;101612.60;;;29.90
68939;BMP180;59064;45.294;11.816;2022-08-11T08:50:10;101623.40;;;29.70
68939;BMP180;59064;45.294;11.816;2022-08-11T08:52:46;101622.00;;;29.76
68939;BMP180;59064;45.294;11.816;2022-08-11T08:55:18;101619.00;;;29.90
68939;BMP180;59064;45.294;11.816;2022-08-11T08:57:45;101619.20;;;30.18
68939;BMP180;59064;45.294;11.816;2022-08-11T09:00:15;101611.00;;;30.40
68939;BMP180;59064;45.294;11.816;2022-08-11T09:02:42;101609.60;;;30.50
68939;BMP180;59064;45.294;11.816;2022-08-11T09:05:09;101612.20;;;30.80
68939;BMP180;59064;45.294;11.816;2022-08-11T09:07:35;101605.00;;;30.92
68939;BMP180;59064;45.294;11.816;2022-08-11T09:10:03;101614.20;;;30.80
68939;BMP180;59064;45.294;11.816;2022-08-11T09:12:31;101603.40;;;30.60
68939;BMP180;59064;45.294;11.816;2022-08-11T09:14:59;101612.80;;;30.80
68939;BMP180;59064;45.294;11.816;2022-08-11T09:17:58;101606.60;;;31.08
68939;BMP180;59064;45.294;11.816;2022-08-11T09:20:36;101605.00;;;31.40
68939;BMP180;59064;45.294;11.816;2022-08-11T09:23:06;101608.60;;;31.50
68939;BMP180;59064;45.294;11.816;2022-08-11T09:25:59;101609.80;;;31.80
68939;BMP180;59064;45.294;11.816;2022-08-11T09:28:45;101604.20;;;31.80
68939;BMP180;59064;45.294;11.816;2022-08-11T09:31:13;101602.40;;;31.70
68939;BMP180;59064;45.294;11.816;2022-08-11T09:33:41;101604.00;;;31.60
68939;BMP180;59064;45.294;11.816;2022-08-11T09:36:08;101591.20;;;31.60
68939;BMP180;59064;45.294;11.816;2022-08-11T09:38:54;101603.80;;;31.52
68939;BMP180;59064;45.294;11.816;2022-08-11T09:41:39;101598.20;;;31.58
68939;BMP180;59064;45.294;11.816;2022-08-11T09:44:08;101594.60;;;31.40
68939;BMP180;59064;45.294;11.816;2022-08-11T09:46:54;101597.00;;;31.20
68939;BMP180;59064;45.294;11.816;2022-08-11T09:49:24;101586.40;;;31.30
68939;BMP180;59064;45.294;11.816;2022-08-11T09:51:50;101579.40;;;31.40
68939;BMP180;59064;45.294;11.816;2022-08-11T09:54:17;101587.40;;;31.40
68939;BMP180;59064;45.294;11.816;2022-08-11T09:56:44;101586.00;;;31.70
68939;BMP180;59064;45.294;11.816;2022-08-11T09:59:28;101575.40;;;31.68
68939;BMP180;59064;45.294;11.816;2022-08-11T10:01:59;101583.40;;;31.70
68939;BMP180;59064;45.294;11.816;2022-08-11T10:04:40;101579.80;;;31.80
68939;BMP180;59064;45.294;11.816;2022-08-11T10:07:07;101573.60;;;31.70
68939;BMP180;59064;45.294;11.816;2022-08-11T10:09:46;101573.40;;;31.74
68939;BMP180;59064;45.294;11.816;2022-08-11T10:12:22;101566.20;;;31.62
68939;BMP180;59064;45.294;11.816;2022-08-11T10:15:03;101571.80;;;31.50
68939;BMP180;59064;45.294;11.816;2022-08-11T10:17:56;101574.20;;;31.50
68939;BMP180;59064;45.294;11.816;2022-08-11T10:20:41;101574.20;;;31.56
68939;BMP180;59064;45.294;11.816;2022-08-11T10:23:11;101574.00;;;31.70
68939;BMP180;59064;45.294;11.816;2022-08-11T10:25:57;101554.60;;;31.72
68939;BMP180;59064;45.294;11.816;2022-08-11T10:28:41;101566.60;;;31.80
68939;BMP180;59064;45.294;11.816;2022-08-11T10:31:08;101564.20;;;31.90
68939;BMP180;59064;45.294;11.816;2022-08-11T10:33:52;101560.00;;;32.00
68939;BMP180;59064;45.294;11.816;2022-08-11T10:36:44;101565.80;;;31.80
68939;BMP180;59064;45.294;11.816;2022-08-11T10:39:22;101555.20;;;31.70
68939;BMP180;59064;45.294;11.816;2022-08-11T10:41:48;101555.60;;;31.70
68939;BMP180;59064;45.294;11.816;2022-08-11T10:44:43;101558.20;;;31.70
68939;BMP180;59064;45.294;11.816;2022-08-11T10:47:12;101550.20;;;31.70
68939;BMP180;59064;45.294;11.816;2022-08-11T10:49:57;101553.20;;;31.70
68939;BMP180;59064;45.294;11.816;2022-08-11T10:52:44;101556.00;;;31.80
68939;BMP180;59064;45.294;11.816;2022-08-11T10:55:29;101551.40;;;31.80
68939;BMP180;59064;45.294;11.816;2022-08-11T10:58:14;101557.40;;;31.70
68939;BMP180;59064;45.294;11.816;2022-08-11T11:00:58;101551.80;;;31.82
68939;BMP180;59064;45.294;11.816;2022-08-11T11:03:28;101542.40;;;31.70
68939;BMP180;59064;45.294;11.816;2022-08-11T11:06:12;101549.40;;;31.70
68939;BMP180;59064;45.294;11.816;2022-08-11T11:08:44;101550.40;;;31.60
68939;BMP180;59064;45.294;11.816;2022-08-11T11:11:18;101551.60;;;31.80
68939;BMP180;59064;45.294;11.816;2022-08-11T11:13:49;101551.40;;;31.80
68939;BMP180;59064;45.294;11.816;2022-08-11T11:16:38;101550.80;;;32.00
68939;BMP180;59064;45.294;11.816;2022-08-11T11:19:24;101542.00;;;32.10
68939;BMP180;59064;45.294;11.816;2022-08-11T11:21:53;101546.40;;;32.10
68939;BMP180;59064;45.294;11.816;2022-08-11T11:25:03;101543.80;;;32.40
68939;BMP180;59064;45.294;11.816;2022-08-11T11:27:47;101537.40;;;32.20
68939;BMP180;59064;45.294;11.816;2022-08-11T11:30:18;101532.20;;;32.08
68939;BMP180;59064;45.294;11.816;2022-08-11T11:35:48;101541.60;;;32.08
68939;BMP180;59064;45.294;11.816;2022-08-11T11:38:17;101529.00;;;32.20
68939;BMP180;59064;45.294;11.816;2022-08-11T11:40:43;101534.20;;;32.30
68939;BMP180;59064;45.294;11.816;2022-08-11T11:43:29;101532.00;;;32.30
68939;BMP180;59064;45.294;11.816;2022-08-11T11:45:57;101526.20;;;32.40
68939;BMP180;59064;45.294;11.816;2022-08-11T11:48:22;101522.60;;;32.50
68939;BMP180;59064;45.294;11.816;2022-08-11T11:50:54;101528.40;;;32.40
68939;BMP180;59064;45.294;11.816;2022-08-11T11:53:20;101528.40;;;32.50
68939;BMP180;59064;45.294;11.816;2022-08-11T11:55:47;101528.20;;;32.58
68939;BMP180;59064;45.294;11.816;2022-08-11T11:58:13;101524.00;;;32.70
68939;BMP180;59064;45.294;11.816;2022-08-11T12:00:57;101520.00;;;32.70
68939;BMP180;59064;45.294;11.816;2022-08-11T12:03:45;101525.60;;;32.72
68939;BMP180;59064;45.294;11.816;2022-08-11T12:06:12;101522.20;;;32.94
68939;BMP180;59064;45.294;11.816;2022-08-11T12:08:41;101521.00;;;33.00
68939;BMP180;59064;45.294;11.816;2022-08-11T12:11:11;101523.60;;;32.86
68939;BMP180;59064;45.294;11.816;2022-08-11T12:14:06;101521.20;;;32.80
68939;BMP180;59064;45.294;11.816;2022-08-11T12:16:35;101511.20;;;32.90
68939;BMP180;59064;45.294;11.816;2022-08-11T12:19:11;101513.40;;;33.00
68939;BMP180;59064;45.294;11.816;2022-08-11T12:21:39;101500.60;;;33.10
68939;BMP180;59064;45.294;11.816;2022-08-11T12:24:23;101507.00;;;32.80
68939;BMP180;59064;45.294;11.816;2022-08-11T12:27:10;101495.00;;;32.98
68939;BMP180;59064;45.294;11.816;2022-08-11T12:30:03;101502.60;;;33.10
68939;BMP180;59064;45.294;11.816;2022-08-11T12:32:37;101496.80;;;33.10
68939;BMP180;59064;45.294;11.816;2022-08-11T12:35:05;101503.00;;;33.22
68939;BMP180;59064;45.294;11.816;2022-08-11T12:37:39;101499.80;;;33.30
68939;BMP180;59064;45.294;11.816;2022-08-11T12:40:11;101497.80;;;33.20
68939;BMP180;59064;45.294;11.816;2022-08-11T12:43:02;101501.80;;;33.54
68939;BMP180;59064;45.294;11.816;2022-08-11T12:45:49;101493.60;;;33.70
68939;BMP180;59064;45.294;11.816;2022-08-11T12:48:20;101496.00;;;33.80
68939;BMP180;59064;45.294;11.816;2022-08-11T12:51:15;101496.80;;;33.80
68939;BMP180;59064;45.294;11.816;2022-08-11T12:54:32;101489.20;;;33.70
68939;BMP180;59064;45.294;11.816;2022-08-11T12:57:03;101490.60;;;33.60
68939;BMP180;59064;45.294;11.816;2022-08-11T12:59:51;101477.20;;;33.80
68939;BMP180;59064;45.294;11.816;2022-08-11T13:02:35;101478.60;;;33.96
68939;BMP180;59064;45.294;11.816;2022-08-11T13:05:20;101480.20;;;34.36
68939;BMP180;59064;45.294;11.816;2022-08-11T13:07:47;101473.40;;;34.56
68939;BMP180;59064;45.294;11.816;2022-08-11T13:10:16;101477.60;;;34.60
68939;BMP180;59064;45.294;11.816;2022-08-11T13:13:07;101470.80;;;34.90
68939;BMP180;59064;45.294;11.816;2022-08-11T13:15:33;101466.20;;;35.10
68939;BMP180;59064;45.294;11.816;2022-08-11T13:18:03;101457.60;;;35.12
68939;BMP180;59064;45.294;11.816;2022-08-11T13:20:33;101466.60;;;35.14
68939;BMP180;59064;45.294;11.816;2022-08-11T13:23:00;101459.40;;;35.00
68939;BMP180;59064;45.294;11.816;2022-08-11T13:25:30;101458.00;;;35.02
68939;BMP180;59064;45.294;11.816;2022-08-11T13:27:58;101452.40;;;35.16
68939;BMP180;59064;45.294;11.816;2022-08-11T13:30:29;101455.20;;;35.20
68939;BMP180;59064;45.294;11.816;2022-08-11T13:33:14;101446.60;;;35.24
68939;BMP180;59064;45.294;11.816;2022-08-11T13:35:50;101450.40;;;35.54
68939;BMP180;59064;45.294;11.816;2022-08-11T13:38:19;101448.60;;;35.86
68939;BMP180;59064;45.294;11.816;2022-08-11T13:40:48;101444.40;;;36.14
68939;BMP180;59064;45.294;11.816;2022-08-11T13:43:15;101437.60;;;36.46
68939;BMP180;59064;45.294;11.816;2022-08-11T13:45:43;101441.00;;;36.50
68939;BMP180;59064;45.294;11.816;2022-08-11T13:48:12;101438.00;;;36.40
68939;BMP180;59064;45.294;11.816;2022-08-11T13:50:38;101445.80;;;36.60
68939;BMP180;59064;45.294;11.816;2022-08-11T13:53:25;101445.00;;;36.60
68939;BMP180;59064;45.294;11.816;2022-08-11T13:55:52;101436.60;;;36.90
68939;BMP180;59064;45.294;11.816;2022-08-11T13:58:21;101432.60;;;37.00
68939;BMP180;59064;45.294;11.816;2022-08-11T14:00:50;101431.00;;;36.60
68939;BMP180;59064;45.294;11.816;2022-08-11T14:03:23;101438.40;;;36.50
68939;BMP180;59064;45.294;11.816;2022-08-11T14:05:52;101435.00;;;37.02
68939;BMP180;59064;45.294;11.816;2022-08-11T14:08:26;101434.20;;;37.50
68939;BMP180;59064;45.294;11.816;2022-08-11T14:11:01;101432.40;;;37.52
68939;BMP180;59064;45.294;11.816;2022-08-11T14:13:47;101425.00;;;37.50
68939;BMP180;59064;45.294;11.816;2022-08-11T14:16:28;101429.00;;;37.70
68939;BMP180;59064;45.294;11.816;2022-08-11T14:19:01;101429.40;;;38.00
68939;BMP180;59064;45.294;11.816;2022-08-11T14:21:29;101423.80;;;38.20
68939;BMP180;59064;45.294;11.816;2022-08-11T14:24:16;101423.60;;;38.00
68939;BMP180;59064;45.294;11.816;2022-08-11T14:26:43;101420.80;;;38.24
68939;BMP180;59064;45.294;11.816;2022-08-11T14:29:28;101414.20;;;38.22
68939;BMP180;59064;45.294;11.816;2022-08-11T14:32:05;101417.80;;;38.32
68939;BMP180;59064;45.294;11.816;2022-08-11T14:34:32;101420.40;;;38.60
68939;BMP180;59064;45.294;11.816;2022-08-11T14:37:03;101419.20;;;38.90
68939;BMP180;59064;45.294;11.816;2022-08-11T14:39:39;101414.60;;;38.96
68939;BMP180;59064;45.294;11.816;2022-08-11T14:42:06;101412.40;;;39.44
68939;BMP180;59064;45.294;11.816;2022-08-11T14:44:56;101410.40;;;39.40
68939;BMP180;59064;45.294;11.816;2022-08-11T14:47:40;101404.20;;;39.30
68939;BMP180;59064;45.294;11.816;2022-08-11T14:50:11;101404.20;;;39.10
68939;BMP180;59064;45.294;11.816;2022-08-11T14:55:15;101396.40;;;38.54
68939;BMP180;59064;45.294;11.816;2022-08-11T14:58:01;101390.80;;;38.40
68939;BMP180;59064;45.294;11.816;2022-08-11T15:00:28;101391.60;;;38.54
68939;BMP180;59064;45.294;11.816;2022-08-11T15:02:54;101395.20;;;38.80
68939;BMP180;59064;45.294;11.816;2022-08-11T15:05:57;101394.20;;;39.08
68939;BMP180;59064;45.294;11.816;2022-08-11T15:08:28;101387.20;;;39.44
68939;BMP180;59064;45.294;11.816;2022-08-11T15:11:15;101387.20;;;39.62
68939;BMP180;59064;45.294;11.816;2022-08-11T15:14:02;101382.40;;;40.20
68939;BMP180;59064;45.294;11.816;2022-08-11T15:16:29;101377.80;;;40.40
68939;BMP180;59064;45.294;11.816;2022-08-11T15:19:14;101381.80;;;40.16
68939;BMP180;59064;45.294;11.816;2022-08-11T15:21:41;101375.00;;;39.60
68939;BMP180;59064;45.294;11.816;2022-08-11T15:24:25;101373.40;;;39.86
68939;BMP180;59064;45.294;11.816;2022-08-11T15:26:51;101367.00;;;40.30
68939;BMP180;59064;45.294;11.816;2022-08-11T15:29:38;101364.60;;;39.96
68939;BMP180;59064;45.294;11.816;2022-08-11T15:32:25;101355.60;;;39.62
68939;BMP180;59064;45.294;11.816;2022-08-11T15:35:09;101360.80;;;39.22
68939;BMP180;59064;45.294;11.816;2022-08-11T15:37:57;101354.00;;;39.24
68939;BMP180;59064;45.294;11.816;2022-08-11T15:40:30;101357.20;;;38.86
68939;BMP180;59064;45.294;11.816;2022-08-11T15:43:31;101355.60;;;38.90
68939;BMP180;59064;45.294;11.816;2022-08-11T15:46:40;101343.40;;;38.92
68939;BMP180;59064;45.294;11.816;2022-08-11T15:49:11;101345.40;;;38.40
68939;BMP180;59064;45.294;11.816;2022-08-11T15:51:59;101346.20;;;38.34
68939;BMP180;59064;45.294;11.816;2022-08-11T15:54:29;101345.40;;;38.60
68939;BMP180;59064;45.294;11.816;2022-08-11T15:56:57;101347.40;;;38.80
68939;BMP180;59064;45.294;11.816;2022-08-11T15:59:27;101344.20;;;38.62
68939;BMP180;59064;45.294;11.816;2022-08-11T16:02:19;101344.00;;;38.60
68939;BMP180;59064;45.294;11.816;2022-08-11T16:05:05;101339.20;;;38.50
68939;BMP180;59064;45.294;11.816;2022-08-11T16:07:34;101345.00;;;38.46
68939;BMP180;59064;45.294;11.816;2022-08-11T16:10:13;101343.20;;;38.70
68939;BMP180;59064;45.294;11.816;2022-08-11T16:12:49;101342.00;;;38.80
68939;BMP180;59064;45.294;11.816;2022-08-11T16:15:35;101340.00;;;38.70
68939;BMP180;59064;45.294;11.816;2022-08-11T16:18:24;101334.40;;;38.80
68939;BMP180;59064;45.294;11.816;2022-08-11T16:21:32;101335.80;;;38.80
68939;BMP180;59064;45.294;11.816;2022-08-11T16:24:00;101332.60;;;38.80
68939;BMP180;59064;45.294;11.816;2022-08-11T16:26:28;101333.20;;;38.60
68939;BMP180;59064;45.294;11.816;2022-08-11T16:28:57;101329.60;;;38.60
68939;BMP180;59064;45.294;11.816;2022-08-11T16:31:24;101327.60;;;38.40
68939;BMP180;59064;45.294;11.816;2022-08-11T16:33:51;101325.60;;;38.32
68939;BMP180;59064;45.294;11.816;2022-08-11T16:36:20;101324.80;;;38.20
68939;BMP180;59064;45.294;11.816;2022-08-11T16:39:07;101326.00;;;38.30
68939;BMP180;59064;45.294;11.816;2022-08-11T16:41:36;101323.20;;;38.10
68939;BMP180;59064;45.294;11.816;2022-08-11T16:44:23;101324.00;;;37.84
68939;BMP180;59064;45.294;11.816;2022-08-11T16:47:15;101324.00;;;37.50
68939;BMP180;59064;45.294;11.816;2022-08-11T16:49:52;101317.80;;;37.50
68939;BMP180;59064;45.294;11.816;2022-08-11T16:52:18;101317.40;;;37.50
68939;BMP180;59064;45.294;11.816;2022-08-11T16:54:45;101313.20;;;37.50
68939;BMP180;59064;45.294;11.816;2022-08-11T16:57:25;101317.60;;;37.40
68939;BMP180;59064;45.294;11.816;2022-08-11T17:00:14;101318.40;;;37.40
68939;BMP180;59064;45.294;11.816;2022-08-11T17:02:51;101314.60;;;37.20
68939;BMP180;59064;45.294;11.816;2022-08-11T17:05:51;101309.20;;;37.00
68939;BMP180;59064;45.294;11.816;2022-08-11T17:08:46;101310.40;;;36.90
68939;BMP180;59064;45.294;11.816;2022-08-11T17:11:50;101313.00;;;36.60
68939;BMP180;59064;45.294;11.816;2022-08-11T17:14:53;101310.80;;;36.32
68939;BMP180;59064;45.294;11.816;2022-08-11T17:17:32;101311.60;;;35.80
68939;BMP180;59064;45.294;11.816;2022-08-11T17:20:04;101312.60;;;35.44
68939;BMP180;59064;45.294;11.816;2022-08-11T17:22:33;101315.00;;;35.30
68939;BMP180;59064;45.294;11.816;2022-08-11T17:25:21;101317.60;;;35.20
68939;BMP180;59064;45.294;11.816;2022-08-11T17:27:49;101313.40;;;35.10
68939;BMP180;59064;45.294;11.816;2022-08-11T17:30:16;101315.80;;;34.80
68939;BMP180;59064;45.294;11.816;2022-08-11T17:32:47;101315.00;;;34.38
68939;BMP180;59064;45.294;11.816;2022-08-11T17:35:39;101324.60;;;33.94
68939;BMP180;59064;45.294;11.816;2022-08-11T17:38:09;101320.40;;;33.50
68939;BMP180;59064;45.294;11.816;2022-08-11T17:40:40;101321.60;;;32.94
68939;BMP180;59064;45.294;11.816;2022-08-11T17:43:29;101317.20;;;32.42
68939;BMP180;59064;45.294;11.816;2022-08-11T17:46:17;101314.60;;;31.88
68939;BMP180;59064;45.294;11.816;2022-08-11T17:49:08;101310.20;;;31.30
68939;BMP180;59064;45.294;11.816;2022-08-11T17:51:37;101310.80;;;30.80
68939;BMP180;59064;45.294;11.816;2022-08-11T17:54:23;101309.40;;;30.38
68939;BMP180;59064;45.294;11.816;2022-08-11T17:57:09;101308.60;;;29.98
68939;BMP180;59064;45.294;11.816;2022-08-11T17:59:54;101310.60;;;29.60
68939;BMP180;59064;45.294;11.816;2022-08-11T18:02:40;101313.40;;;29.30
68939;BMP180;59064;45.294;11.816;2022-08-11T18:05:29;101310.20;;;29.00
68939;BMP180;59064;45.294;11.816;2022-08-11T18:07:57;101309.80;;;28.80
68939;BMP180;59064;45.294;11.816;2022-08-11T18:10:44;101312.00;;;28.60
68939;BMP180;59064;45.294;11.816;2022-08-11T18:13:32;101310.80;;;28.40
68939;BMP180;59064;45.294;11.816;2022-08-11T18:16:17;101310.80;;;28.20